createdAt,value
2022-10-12T00:02:34.715Z,18.25
2022-10-12T00:05:20.092Z,23.13
2022-10-12T00:08:05.295Z,21.38
2022-10-12T00:10:50.588Z,17.73
2022-10-12T00:13:35.754Z,17.95
2022-10-12T00:16:24.803Z,22.65
2022-10-12T00:19:12.546Z,16.17
2022-10-12T00:21:57.743Z,17.98
2022-10-12T00:24:43.072Z,17.45
2022-10-12T00:27:28.390Z,16.17
2022-10-12T00:30:13.702Z,21.05
2022-10-12T00:32:58.958Z,21.45
2022-10-12T00:35:44.372Z,17.58
2022-10-12T00:38:29.773Z,19.05
2022-10-12T00:41:17.360Z,18.50
2022-10-12T00:44:02.566Z,14.32
2022-10-12T00:46:48.130Z,18.35
2022-10-12T00:49:34.152Z,18.63
2022-10-12T00:52:26.190Z,15.23
2022-10-12T00:55:15.253Z,18.58
2022-10-12T00:58:00.997Z,18.48
2022-10-12T01:00:46.844Z,20.38
2022-10-12T01:03:32.612Z,16.08
2022-10-12T01:06:18.519Z,18.63
2022-10-12T01:09:04.691Z,19.08
2022-10-12T01:11:50.173Z,13.00
2022-10-12T01:14:36.135Z,18.70
2022-10-12T01:17:48.546Z,19.13
2022-10-12T01:21:19.477Z,14.93
2022-10-12T01:24:17.437Z,16.27
2022-10-12T01:27:32.893Z,22.08
2022-10-12T01:30:22.316Z,17.48
2022-10-12T01:33:32.111Z,18.55
2022-10-12T01:36:27.350Z,14.60
2022-10-12T01:39:21.362Z,22.35
2022-10-12T01:42:16.990Z,13.20
2022-10-12T01:45:03.282Z,14.20
2022-10-12T01:47:52.653Z,16.40
2022-10-12T01:50:49.851Z,17.00
2022-10-12T01:53:50.240Z,14.98
2022-10-12T01:56:43.764Z,14.57
2022-10-12T02:00:07.146Z,17.20
2022-10-12T02:03:09.925Z,14.80
2022-10-12T02:06:13.710Z,15.93
2022-10-12T02:09:05.888Z,21.70
2022-10-12T02:11:54.766Z,14.77
2022-10-12T02:15:00.642Z,17.58
2022-10-12T02:17:49.409Z,15.43
2022-10-12T02:20:37.643Z,21.58
2022-10-12T02:23:24.697Z,19.73
2022-10-12T02:26:12.318Z,14.95
2022-10-12T02:28:59.626Z,15.80
2022-10-12T02:31:53.158Z,14.80
2022-10-12T02:34:46.103Z,17.85
2022-10-12T02:37:48.738Z,15.00
2022-10-12T02:40:41.801Z,17.83
2022-10-12T02:43:38.128Z,17.13
2022-10-12T02:46:25.609Z,13.02
2022-10-12T02:49:12.651Z,17.50
2022-10-12T02:51:58.422Z,13.65
2022-10-12T02:54:43.622Z,18.67
2022-10-12T02:57:29.001Z,13.68
2022-10-12T03:00:15.027Z,16.73
2022-10-12T03:03:00.105Z,21.95
2022-10-12T03:05:46.119Z,15.80
2022-10-12T03:08:31.301Z,16.25
2022-10-12T03:11:16.578Z,15.20
2022-10-12T03:14:01.801Z,11.15
2022-10-12T03:16:48.077Z,16.10
2022-10-12T03:19:33.529Z,15.73
2022-10-12T03:22:18.699Z,14.98
2022-10-12T03:25:04.434Z,18.67
2022-10-12T03:27:49.735Z,16.38
2022-10-12T03:30:34.912Z,15.52
2022-10-12T03:33:20.240Z,16.77
2022-10-12T03:36:06.037Z,14.93
2022-10-12T03:38:51.393Z,14.68
2022-10-12T03:41:36.622Z,18.63
2022-10-12T03:44:22.233Z,20.45
2022-10-12T03:47:07.317Z,17.10
2022-10-12T03:49:52.780Z,22.15
2022-10-12T03:52:38.183Z,17.45
2022-10-12T03:55:23.768Z,20.45
2022-10-12T03:58:08.983Z,16.85
2022-10-12T04:00:55.044Z,16.80
2022-10-12T04:03:40.493Z,20.67
2022-10-12T04:06:25.604Z,18.85
2022-10-12T04:09:10.843Z,18.38
2022-10-12T04:11:55.913Z,20.70
2022-10-12T04:14:41.358Z,16.95
2022-10-12T04:17:26.752Z,23.13
2022-10-12T04:20:13.039Z,21.23
2022-10-12T04:22:58.590Z,18.17
2022-10-12T04:25:43.794Z,16.80
2022-10-12T04:28:28.988Z,18.27
2022-10-12T04:31:14.136Z,16.85
2022-10-12T04:33:59.587Z,21.45
2022-10-12T04:36:44.801Z,16.35
2022-10-12T04:39:30.435Z,23.77
2022-10-12T04:42:16.030Z,17.27
2022-10-12T04:45:01.331Z,17.80
2022-10-12T04:47:46.514Z,18.13
2022-10-12T04:50:32.215Z,20.17
2022-10-12T04:53:17.547Z,19.65
2022-10-12T04:56:04.797Z,17.50
2022-10-12T04:58:49.903Z,19.83
2022-10-12T05:01:35.119Z,17.02
2022-10-12T05:04:20.633Z,16.10
2022-10-12T05:07:05.749Z,16.30
2022-10-12T05:09:50.962Z,23.50
2022-10-12T05:12:36.606Z,19.38
2022-10-12T05:15:22.168Z,20.75
2022-10-12T05:18:07.386Z,23.50
2022-10-12T05:20:56.870Z,15.05
2022-10-12T05:23:42.435Z,19.65
2022-10-12T05:26:28.000Z,20.27
2022-10-12T05:29:13.151Z,17.40
2022-10-12T05:31:58.435Z,23.10
2022-10-12T05:34:43.760Z,23.10
2022-10-12T05:37:28.998Z,19.77
2022-10-12T05:40:14.389Z,19.58
2022-10-12T05:42:59.600Z,17.75
2022-10-12T05:45:44.826Z,16.80
2022-10-12T05:48:33.311Z,19.30
2022-10-12T05:51:18.352Z,24.10
2022-10-12T05:54:04.287Z,19.20
2022-10-12T05:56:49.524Z,22.08
2022-10-12T05:59:34.923Z,19.25
2022-10-12T06:02:20.449Z,18.58
2022-10-12T06:05:05.978Z,24.60
2022-10-12T06:07:51.301Z,21.67
2022-10-12T06:10:38.052Z,23.23
2022-10-12T06:13:23.801Z,25.15
2022-10-12T06:16:08.899Z,21.92
2022-10-12T06:18:53.921Z,18.30
2022-10-12T06:21:39.546Z,19.27
2022-10-12T06:24:24.543Z,22.15
2022-10-12T06:27:10.326Z,25.95
2022-10-12T06:29:55.682Z,21.25
2022-10-12T06:32:41.155Z,24.17
2022-10-12T06:35:26.506Z,24.63
2022-10-12T06:38:11.547Z,27.33
2022-10-12T06:40:57.461Z,25.58
2022-10-12T06:43:43.065Z,34.25
2022-10-12T06:46:28.693Z,23.55
2022-10-12T06:49:13.854Z,29.58
2022-10-12T06:51:59.053Z,21.35
2022-10-12T06:54:44.571Z,20.30
2022-10-12T06:57:29.787Z,24.77
2022-10-12T07:00:15.973Z,23.45
2022-10-12T07:03:01.350Z,23.15
2022-10-12T07:05:46.782Z,19.63
2022-10-12T07:08:32.108Z,26.95
2022-10-12T07:11:17.542Z,15.63
2022-10-12T07:14:02.957Z,21.90
2022-10-12T07:16:52.899Z,24.33
2022-10-12T07:19:39.958Z,16.90
2022-10-12T07:22:26.340Z,19.95
2022-10-12T07:25:11.586Z,20.75
2022-10-12T07:27:56.770Z,17.15
2022-10-12T07:30:42.117Z,16.75
2022-10-12T07:33:27.117Z,22.05
2022-10-12T07:36:14.843Z,21.63
2022-10-12T07:39:01.076Z,25.13
2022-10-12T07:41:46.527Z,21.80
2022-10-12T07:44:32.810Z,17.65
2022-10-12T07:47:19.327Z,16.00
2022-10-12T07:50:05.131Z,16.75
2022-10-12T07:52:50.163Z,21.55
2022-10-12T07:55:35.819Z,14.77
2022-10-12T07:58:20.983Z,17.13
2022-10-12T08:01:08.567Z,16.83
2022-10-12T08:03:58.802Z,23.20
2022-10-12T08:06:46.678Z,16.90
2022-10-12T08:09:31.895Z,15.75
2022-10-12T08:12:16.967Z,19.80
2022-10-12T08:15:02.003Z,19.25
2022-10-12T08:17:47.532Z,13.27
2022-10-12T08:20:32.491Z,12.93
2022-10-12T08:23:17.835Z,21.13
2022-10-12T08:26:03.890Z,20.77
2022-10-12T08:28:49.423Z,12.25
2022-10-12T08:31:35.813Z,23.63
2022-10-12T08:34:21.600Z,20.50
2022-10-12T08:37:07.765Z,14.77
2022-10-12T08:39:52.987Z,17.05
2022-10-12T08:43:16.670Z,17.15
2022-10-12T08:46:04.214Z,13.88
2022-10-12T08:49:25.655Z,24.00
2022-10-12T08:52:23.582Z,15.40
2022-10-12T08:55:39.446Z,15.20
2022-10-12T08:58:31.999Z,13.35
2022-10-12T09:01:49.886Z,14.30
2022-10-12T09:05:10.865Z,21.23
2022-10-12T09:08:07.318Z,13.13
2022-10-12T09:11:22.942Z,16.77
2022-10-12T09:14:21.043Z,23.00
2022-10-12T09:17:42.079Z,15.63
2022-10-12T09:20:31.275Z,17.90
2022-10-12T09:23:31.520Z,14.25
2022-10-12T09:26:28.405Z,11.85
2022-10-12T09:29:25.956Z,15.30
2022-10-12T09:32:16.958Z,11.95
2022-10-12T09:35:04.714Z,15.40
2022-10-12T09:37:52.834Z,16.20
2022-10-12T09:40:39.028Z,9.40
2022-10-12T09:43:24.447Z,14.77
2022-10-12T09:46:15.511Z,18.00
2022-10-12T09:49:01.476Z,23.23
2022-10-12T09:51:47.046Z,12.05
2022-10-12T09:54:33.527Z,13.43
2022-10-12T09:57:35.446Z,12.32
2022-10-12T10:00:34.686Z,9.73
2022-10-12T10:06:15.535Z,9.15
2022-10-12T10:09:03.777Z,10.93
2022-10-12T10:11:49.234Z,13.43
2022-10-12T10:14:35.973Z,12.40
2022-10-12T10:17:31.447Z,11.48
2022-10-12T10:20:27.049Z,10.77
2022-10-12T10:23:32.792Z,16.10
2022-10-12T10:26:20.752Z,11.15
2022-10-12T10:29:26.024Z,13.05
2022-10-12T10:32:28.854Z,12.98
2022-10-12T10:35:13.817Z,10.30
2022-10-12T10:38:00.902Z,9.13
2022-10-12T10:40:52.134Z,6.82
2022-10-12T10:43:37.425Z,11.30
2022-10-12T10:46:30.612Z,13.20
2022-10-12T10:49:37.947Z,10.60
2022-10-12T10:52:27.843Z,13.38
2022-10-12T10:55:13.100Z,14.45
2022-10-12T10:58:12.201Z,6.63
2022-10-12T11:01:10.423Z,9.77
2022-10-12T11:04:02.688Z,9.48
2022-10-12T11:06:56.933Z,8.25
2022-10-12T11:09:45.948Z,8.07
2022-10-12T11:12:35.984Z,10.87
2022-10-12T11:15:32.494Z,9.38
2022-10-12T11:18:28.950Z,15.00
2022-10-12T11:21:38.894Z,12.23
2022-10-12T11:27:22.011Z,9.32
2022-10-12T11:30:15.554Z,8.40
2022-10-12T11:33:12.312Z,9.25
2022-10-12T11:35:58.735Z,10.75
2022-10-12T11:38:51.219Z,11.18
2022-10-12T11:42:09.831Z,8.75
2022-10-12T11:44:51.838Z,11.05
2022-10-12T11:47:41.923Z,7.85
2022-10-12T11:50:37.307Z,7.78
2022-10-12T11:54:09.065Z,7.75
2022-10-12T11:57:00.470Z,11.00
2022-10-12T12:00:06.079Z,10.75
2022-10-12T12:03:42.459Z,12.15
2022-10-12T12:06:30.883Z,11.20
2022-10-12T12:09:35.526Z,8.20
2022-10-12T12:12:28.499Z,11.60
2022-10-12T12:15:22.146Z,14.95
2022-10-12T12:18:20.039Z,9.98
2022-10-12T12:21:08.037Z,9.02
2022-10-12T12:23:55.648Z,7.45
2022-10-12T12:26:47.449Z,7.55
2022-10-12T12:29:32.715Z,10.18
2022-10-12T12:32:18.979Z,11.30
2022-10-12T12:35:05.017Z,8.05
2022-10-12T12:38:17.206Z,6.93
2022-10-12T12:41:04.142Z,11.23
2022-10-12T12:43:59.914Z,10.13
2022-10-12T12:46:54.567Z,7.30
2022-10-12T12:49:50.899Z,7.28
2022-10-12T12:52:42.284Z,16.40
2022-10-12T12:55:57.535Z,11.70
2022-10-12T12:59:01.767Z,11.82
2022-10-12T13:02:17.019Z,9.60
2022-10-12T13:05:41.057Z,9.75
2022-10-12T13:08:38.702Z,7.65
2022-10-12T13:11:54.898Z,8.60
2022-10-12T13:14:46.189Z,7.78
2022-10-12T13:18:09.067Z,5.28
2022-10-12T13:21:00.618Z,12.77
2022-10-12T13:23:49.090Z,9.45
2022-10-12T13:26:36.516Z,14.23
2022-10-12T13:29:52.155Z,6.80
2022-10-12T13:32:59.096Z,12.45
2022-10-12T13:36:08.294Z,8.35
2022-10-12T13:38:59.087Z,11.88
2022-10-12T13:41:46.082Z,11.00
2022-10-12T13:44:35.412Z,8.43
2022-10-12T13:47:22.560Z,8.23
2022-10-12T13:50:20.770Z,7.55
2022-10-12T13:53:14.815Z,12.63
2022-10-12T13:56:16.544Z,11.45
2022-10-12T13:59:06.713Z,8.77
2022-10-12T14:02:00.824Z,9.75
2022-10-12T14:04:45.951Z,8.05
2022-10-12T14:07:39.204Z,9.07
2022-10-12T14:10:38.736Z,9.40
2022-10-12T14:16:14.208Z,9.05
2022-10-12T14:19:19.661Z,8.18
2022-10-12T14:22:05.655Z,9.93
2022-10-12T14:24:56.883Z,11.45
2022-10-12T14:27:42.384Z,9.50
2022-10-12T14:30:32.449Z,9.45
2022-10-12T14:33:18.051Z,8.80
2022-10-12T14:36:21.608Z,14.63
2022-10-12T14:39:13.712Z,10.02
2022-10-12T14:42:02.731Z,9.63
2022-10-12T14:44:49.127Z,9.93
2022-10-12T14:47:39.045Z,10.18
2022-10-12T14:50:24.660Z,10.90
2022-10-12T14:53:12.791Z,12.75
2022-10-12T14:55:58.174Z,9.05
2022-10-12T14:58:43.487Z,9.05
2022-10-12T15:01:29.068Z,8.65
2022-10-12T15:04:15.171Z,8.80
2022-10-12T15:07:00.366Z,11.10
2022-10-12T15:09:45.861Z,6.60
2022-10-12T15:12:31.433Z,7.57
2022-10-12T15:15:35.117Z,6.28
2022-10-12T15:18:20.404Z,8.13
2022-10-12T15:21:05.591Z,12.57
2022-10-12T15:23:51.141Z,12.50
2022-10-12T15:26:42.100Z,9.60
2022-10-12T15:29:27.601Z,8.00
2022-10-12T15:32:15.022Z,10.27
2022-10-12T15:35:00.976Z,7.05
2022-10-12T15:37:46.996Z,12.02
2022-10-12T15:40:34.220Z,14.98
2022-10-12T15:43:20.804Z,9.60
2022-10-12T15:46:09.327Z,11.02
2022-10-12T15:48:54.841Z,12.95
2022-10-12T15:51:45.733Z,8.23
2022-10-12T15:54:30.965Z,15.98
2022-10-12T15:57:16.618Z,12.05
2022-10-12T16:00:01.971Z,13.77
2022-10-12T16:02:57.362Z,10.60
2022-10-12T16:05:42.968Z,11.55
2022-10-12T16:08:28.038Z,10.65
2022-10-12T16:11:16.645Z,9.13
2022-10-12T16:14:02.249Z,14.70
2022-10-12T16:16:47.658Z,11.25
2022-10-12T16:19:33.510Z,13.90
2022-10-12T16:22:18.907Z,14.15
2022-10-12T16:25:06.241Z,11.38
2022-10-12T16:27:53.101Z,9.80
2022-10-12T16:30:40.288Z,15.73
2022-10-12T16:33:25.816Z,13.43
2022-10-12T16:36:13.412Z,13.50
2022-10-12T16:38:58.873Z,14.68
2022-10-12T16:41:44.366Z,15.43
2022-10-12T16:44:29.843Z,11.15
2022-10-12T16:47:15.559Z,17.45
2022-10-12T16:50:03.925Z,14.88
2022-10-12T16:52:49.546Z,18.65
2022-10-12T16:55:37.263Z,16.40
2022-10-12T16:58:22.734Z,15.52
2022-10-12T17:01:10.367Z,16.88
2022-10-12T17:03:55.827Z,15.93
2022-10-12T17:06:41.675Z,22.70
2022-10-12T17:09:27.499Z,15.30
2022-10-12T17:12:13.389Z,18.27
2022-10-12T17:14:58.640Z,16.33
2022-10-12T17:17:43.848Z,17.35
2022-10-12T17:20:29.074Z,15.35
2022-10-12T17:23:14.209Z,23.35
2022-10-12T17:25:59.636Z,17.45
2022-10-12T17:28:45.042Z,19.13
2022-10-12T17:31:30.415Z,19.17
2022-10-12T17:34:23.344Z,25.83
2022-10-12T17:37:12.846Z,21.13
2022-10-12T17:39:58.244Z,16.33
2022-10-12T17:42:43.690Z,16.27
2022-10-12T17:45:29.125Z,12.65
2022-10-12T17:48:16.005Z,9.68
2022-10-12T17:53:51.809Z,17.48
2022-10-12T17:56:36.961Z,23.50
2022-10-12T17:59:22.297Z,17.13
2022-10-12T18:02:09.663Z,22.52
2022-10-12T18:04:54.947Z,17.65
2022-10-12T18:07:40.747Z,13.63
2022-10-12T18:10:28.438Z,21.83
2022-10-12T18:13:14.306Z,14.27
2022-10-12T18:16:00.141Z,19.17
2022-10-12T18:18:50.439Z,14.70
2022-10-12T18:21:36.502Z,20.58
2022-10-12T18:24:23.170Z,20.13
2022-10-12T18:27:08.977Z,18.45
2022-10-12T18:29:56.084Z,17.65
2022-10-12T18:32:43.974Z,15.05
2022-10-12T18:35:30.785Z,17.63
2022-10-12T18:38:15.943Z,17.38
2022-10-12T18:41:07.203Z,22.42
2022-10-12T18:43:58.168Z,16.05
2022-10-12T18:46:44.112Z,19.65
2022-10-12T18:49:29.509Z,18.15
2022-10-12T18:52:14.973Z,21.95
2022-10-12T18:55:00.452Z,21.48
2022-10-12T18:57:45.510Z,18.38
2022-10-12T19:00:31.499Z,21.77
2022-10-12T19:03:17.105Z,15.93
2022-10-12T19:06:09.795Z,22.25
2022-10-12T19:08:56.226Z,17.00
2022-10-12T19:11:41.598Z,16.63
2022-10-12T19:14:29.987Z,20.13
2022-10-12T19:17:16.031Z,19.67
2022-10-12T19:20:03.222Z,15.75
2022-10-12T19:22:48.771Z,17.95
2022-10-12T19:25:38.386Z,20.63
2022-10-12T19:28:23.656Z,16.92
2022-10-12T19:31:12.502Z,21.60
2022-10-12T19:33:59.951Z,19.92
2022-10-12T19:36:45.979Z,12.60
2022-10-12T19:39:32.869Z,16.08
2022-10-12T19:42:18.495Z,22.23
2022-10-12T19:45:04.095Z,24.58
2022-10-12T19:47:49.508Z,19.77
2022-10-12T19:50:35.565Z,20.52
2022-10-12T19:53:20.852Z,15.48
2022-10-12T19:56:17.776Z,17.33
2022-10-12T19:59:03.225Z,16.83
2022-10-12T20:01:48.502Z,16.00
2022-10-12T20:04:35.506Z,12.30
2022-10-12T20:07:21.284Z,15.15
2022-10-12T20:10:07.620Z,15.60
2022-10-12T20:12:52.912Z,21.40
2022-10-12T20:15:40.592Z,17.27
2022-10-12T20:18:26.510Z,23.45
2022-10-12T20:21:14.912Z,14.65
2022-10-12T20:24:00.238Z,17.08
2022-10-12T20:26:45.752Z,16.60
2022-10-12T20:29:31.014Z,16.33
2022-10-12T20:32:19.731Z,21.77
2022-10-12T20:35:05.828Z,14.35
2022-10-12T20:37:50.953Z,14.27
2022-10-12T20:40:36.422Z,17.92
2022-10-12T20:43:21.608Z,14.73
2022-10-12T20:46:18.418Z,15.55
2022-10-12T20:49:04.244Z,16.58
2022-10-12T20:51:49.543Z,27.88
2022-10-12T20:54:36.141Z,15.55
2022-10-12T20:57:21.394Z,20.92
2022-10-12T21:00:07.168Z,21.95
2022-10-12T21:02:52.503Z,18.25
2022-10-12T21:05:37.629Z,18.92
2022-10-12T21:08:23.480Z,18.92
2022-10-12T21:11:10.717Z,19.48
2022-10-12T21:13:56.119Z,17.13
2022-10-12T21:16:41.903Z,19.13
2022-10-12T21:19:27.012Z,21.63
2022-10-12T21:22:12.525Z,21.20
2022-10-12T21:25:00.201Z,14.55
2022-10-12T21:27:45.866Z,21.35
2022-10-12T21:30:31.271Z,22.85
2022-10-12T21:33:18.144Z,16.35
2022-10-12T21:36:16.531Z,19.88
2022-10-12T21:39:02.096Z,15.10
2022-10-12T21:41:47.341Z,18.20
2022-10-12T21:44:35.373Z,18.05
2022-10-12T21:47:20.907Z,15.45
2022-10-12T21:50:09.165Z,16.40
2022-10-12T21:53:00.018Z,13.75
2022-10-12T21:55:45.331Z,23.92
2022-10-12T21:58:30.647Z,24.65
2022-10-12T22:01:23.690Z,19.90
2022-10-12T22:04:14.742Z,17.48
2022-10-12T22:07:00.740Z,17.20
2022-10-12T22:09:45.881Z,21.80
2022-10-12T22:12:31.248Z,17.42
2022-10-12T22:15:16.879Z,14.02
2022-10-12T22:18:02.136Z,16.58
2022-10-12T22:20:48.671Z,17.00
2022-10-12T22:23:34.389Z,15.32
2022-10-12T22:26:22.773Z,17.20
2022-10-12T22:29:16.063Z,23.30
2022-10-12T22:32:02.241Z,21.15
2022-10-12T22:34:47.427Z,15.90
2022-10-12T22:37:32.931Z,23.75
2022-10-12T22:40:18.448Z,15.10
2022-10-12T22:43:03.725Z,15.48
2022-10-12T22:45:49.245Z,16.92
2022-10-12T22:48:36.069Z,21.83
2022-10-12T22:51:33.074Z,21.13
2022-10-12T22:54:18.600Z,22.55
2022-10-12T22:57:04.057Z,18.52
2022-10-12T22:59:50.203Z,22.05
2022-10-12T23:02:35.653Z,18.25
2022-10-12T23:05:21.036Z,23.13
2022-10-12T23:08:06.622Z,16.75
2022-10-12T23:10:51.711Z,18.55
2022-10-12T23:13:38.510Z,19.15
2022-10-12T23:16:27.013Z,15.13
2022-10-12T23:19:12.074Z,17.52
2022-10-12T23:21:57.440Z,17.90
2022-10-12T23:24:42.809Z,13.65
2022-10-12T23:27:28.467Z,16.75
2022-10-12T23:30:14.138Z,18.20
2022-10-12T23:32:59.387Z,18.23
2022-10-12T23:35:45.211Z,18.30
2022-10-12T23:38:31.865Z,22.38
2022-10-12T23:41:17.564Z,17.30
2022-10-12T23:44:02.910Z,25.83
2022-10-12T23:46:48.232Z,17.50
2022-10-12T23:49:33.427Z,19.45
2022-10-12T23:52:19.942Z,17.55
2022-10-12T23:55:07.002Z,17.20
2022-10-12T23:57:52.541Z,20.77
